PWSweather.com
Personal Weather Stations
Station Observations
WXFCSTR1
Meadowcroft Subdivision, Sumter, SC 29154

Meadowcroft SubdivisionSumter, SC 29154

Lat: 33.887835, Lon: -80.411964

Elevation: 100

Station Type: Ambient Weather WS-2080

Latest ConditionsUpdated 8:50:00 PM EDT Saturday, Apr 19, 2014
Currently Today's Max Today's Min Today's Average
Temperature 50.9°F10.5°C 54.9°F12.7°C 50.9°F10.5°C 52.9°F11.6°C
Dew Point 50.4°F10.2°C 54.9°F12.7°C 50.4°F10.2°C 52.5°F11.4°C
Winds 1.7 mph NE2.7 kmh NE 10.6 mph E17.1 kmh E - 3.5 mph 5.6 kmh
Wind Gusts 5.1 mph8.2 kmh 21.1 mph34.0 kmh - -
Humidity 98% 100% 97% 99%
Pressure 30.09 in1019.0 mb 30.09 in1019.0 mb 29.97 in1014.9 mb -
Precipitation - 1.35 in34.3 mm - -
Hour Temp Dew Point Humidity Winds Wind Gusts Pressure Precip Precip Rate Daily Precip Total
08:50 PM 50.9°F10.5°C 50.4°F10.2°C 98% 1.7 mph NE2.7 kmh NE 5.1 mph8.2 kmh 30.09 in1019.0 mb 0.00 in0.0 mm 0.00 in/hr0.0 mm/hr 1.35 in34.3 mm
08:40 PM 50.9°F10.5°C 50.4°F10.2°C 98% 3.7 mph NNW6.0 kmh NNW 8.0 mph12.9 kmh 30.09 in1019.0 mb 0.00 in0.0 mm 0.00 in/hr0.0 mm/hr 1.35 in34.3 mm
08:30 PM 51.1°F10.6°C 50.5°F10.3°C 98% 6.3 mph NNE10.1 kmh NNE 11.0 mph17.7 kmh 30.09 in1019.0 mb 0.02 in0.5 mm 0.12 in/hr3.0 mm/hr 1.35 in34.3 mm
08:20 PM 51.1°F10.6°C 50.5°F10.3°C 98% 3.5 mph E5.6 kmh E 13.1 mph21.1 kmh 30.09 in1019.0 mb 0.00 in0.0 mm 0.00 in/hr0.0 mm/hr 1.34 in34.0 mm
08:10 PM 51.3°F10.7°C 50.4°F10.2°C 97% 6.7 mph ENE10.8 kmh ENE 15.2 mph24.5 kmh 30.08 in1018.6 mb 0.00 in0.0 mm 0.00 in/hr0.0 mm/hr 1.34 in34.0 mm
08:00 PM 51.3°F10.7°C 50.4°F10.2°C 97% 2.0 mph 3.2 kmh 4.2 mph6.8 kmh 30.08 in1018.6 mb 0.00 in0.0 mm 0.00 in/hr0.0 mm/hr 1.34 in34.0 mm
07:50 PM 51.4°F10.8°C 50.6°F10.3°C 97% 6.1 mph NNE9.8 kmh NNE 14.3 mph23.0 kmh 30.08 in1018.6 mb 0.00 in0.0 mm 0.00 in/hr0.0 mm/hr 1.34 in34.0 mm
07:40 PM 51.4°F10.8°C 50.6°F10.3°C 97% 4.0 mph NW6.4 kmh NW 7.1 mph11.4 kmh 30.08 in1018.6 mb 0.00 in0.0 mm 0.00 in/hr0.0 mm/hr 1.34 in34.0 mm
07:30 PM 51.8°F11.0°C 51.3°F10.7°C 98% 5.5 mph ESE8.9 kmh ESE 14.3 mph23.0 kmh 30.07 in1018.3 mb 0.00 in0.0 mm 0.00 in/hr0.0 mm/hr 1.34 in34.0 mm
07:20 PM 52.0°F11.1°C 51.4°F10.8°C 98% 2.0 mph 3.2 kmh 4.2 mph6.8 kmh 30.07 in1018.3 mb 0.00 in0.0 mm 0.00 in/hr0.0 mm/hr 1.34 in34.0 mm
07:10 PM 52.2°F11.2°C 51.6°F10.9°C 98% 4.0 mph ENE6.4 kmh ENE 10.1 mph16.3 kmh 30.06 in1017.9 mb 0.00 in0.0 mm 0.00 in/hr0.0 mm/hr 1.34 in34.0 mm
07:00 PM 52.3°F11.3°C 52.1°F11.2°C 99% 5.4 mph N8.7 kmh N 12.2 mph19.6 kmh 30.06 in1017.9 mb 0.00 in0.0 mm 0.00 in/hr0.0 mm/hr 1.34 in34.0 mm
06:50 PM 52.5°F11.4°C 52.2°F11.2°C 99% 3.6 mph E5.8 kmh E 10.1 mph16.3 kmh 30.07 in1018.3 mb 0.00 in0.0 mm 0.00 in/hr0.0 mm/hr 1.34 in34.0 mm
06:40 PM 52.7°F11.5°C 52.2°F11.2°C 98% 2.0 mph SE3.2 kmh SE 3.0 mph4.8 kmh 30.06 in1017.9 mb 0.00 in0.0 mm 0.00 in/hr0.0 mm/hr 1.34 in34.0 mm
06:30 PM 52.7°F11.5°C 52.2°F11.2°C 98% 2.9 mph NE4.7 kmh NE 6.0 mph9.7 kmh 30.06 in1017.9 mb 0.00 in0.0 mm 0.00 in/hr0.0 mm/hr 1.34 in34.0 mm
06:20 PM 52.7°F11.5°C 52.2°F11.2°C 98% 2.0 mph 3.2 kmh 5.1 mph8.2 kmh 30.05 in1017.6 mb 0.00 in0.0 mm 0.00 in/hr0.0 mm/hr 1.34 in34.0 mm
06:10 PM 52.9°F11.6°C 52.3°F11.3°C 98% 8.2 mph ENE13.2 kmh ENE 14.3 mph23.0 kmh 30.05 in1017.6 mb 0.00 in0.0 mm 0.00 in/hr0.0 mm/hr 1.34 in34.0 mm
06:00 PM 53.1°F11.7°C 52.5°F11.4°C 98% 8.9 mph SE14.3 kmh SE 21.1 mph34.0 kmh 30.04 in1017.3 mb 0.00 in0.0 mm 0.00 in/hr0.0 mm/hr 1.34 in34.0 mm
05:50 PM 53.2°F11.8°C 52.7°F11.5°C 98% 2.9 mph NNE4.7 kmh NNE 9.2 mph14.8 kmh 30.04 in1017.3 mb 0.00 in0.0 mm 0.00 in/hr0.0 mm/hr 1.34 in34.0 mm
05:40 PM 53.4°F11.9°C 52.9°F11.6°C 98% 2.9 mph E4.7 kmh E 8.0 mph12.9 kmh 30.04 in1017.3 mb 0.00 in0.0 mm 0.00 in/hr0.0 mm/hr 1.34 in34.0 mm
05:30 PM 53.8°F12.1°C 53.2°F11.8°C 98% 6.1 mph ESE9.8 kmh ESE 14.3 mph23.0 kmh 30.04 in1017.3 mb 0.00 in0.0 mm 0.00 in/hr0.0 mm/hr 1.34 in34.0 mm
05:20 PM 54.1°F12.3°C 53.6°F12.0°C 98% 4.9 mph 7.9 kmh 6.0 mph9.7 kmh 30.04 in1017.3 mb 0.00 in0.0 mm 0.00 in/hr0.0 mm/hr 1.34 in34.0 mm
05:10 PM 54.1°F12.3°C 53.6°F12.0°C 98% 5.4 mph SSE8.7 kmh SSE 13.1 mph21.1 kmh 30.04 in1017.3 mb 0.00 in0.0 mm 0.00 in/hr0.0 mm/hr 1.34 in34.0 mm
05:00 PM 54.3°F12.4°C 53.8°F12.1°C 98% 2.9 mph E4.7 kmh E 6.0 mph9.7 kmh 30.04 in1017.3 mb 0.00 in0.0 mm 0.00 in/hr0.0 mm/hr 1.34 in34.0 mm
04:50 PM 54.3°F12.4°C 53.8°F12.1°C 98% 2.5 mph 4.0 kmh 5.1 mph8.2 kmh 30.03 in1016.9 mb 0.00 in0.0 mm 0.00 in/hr0.0 mm/hr 1.34 in34.0 mm
04:40 PM 54.3°F12.4°C 53.8°F12.1°C 98% 3.6 mph NE5.8 kmh NE 8.0 mph12.9 kmh 30.03 in1016.9 mb 0.00 in0.0 mm 0.00 in/hr0.0 mm/hr 1.34 in34.0 mm
04:30 PM 54.3°F12.4°C 53.8°F12.1°C 98% 6.6 mph ESE10.6 kmh ESE 14.3 mph23.0 kmh 30.02 in1016.6 mb 0.02 in0.5 mm 0.12 in/hr3.0 mm/hr 1.34 in34.0 mm
04:20 PM 54.5°F12.5°C 54.2°F12.3°C 99% 7.4 mph ESE11.9 kmh ESE 19.3 mph31.1 kmh 30.03 in1016.9 mb 0.00 in0.0 mm 0.00 in/hr0.0 mm/hr 1.32 in33.5 mm
04:10 PM 54.5°F12.5°C 54.2°F12.3°C 99% 1.3 mph NW2.1 kmh NW 4.2 mph6.8 kmh 30.03 in1016.9 mb 0.00 in0.0 mm 0.00 in/hr0.0 mm/hr 1.32 in33.5 mm
04:00 PM 54.5°F12.5°C 54.2°F12.3°C 99% 4.9 mph NNE7.9 kmh NNE 9.2 mph14.8 kmh 30.02 in1016.6 mb 0.00 in0.0 mm 0.00 in/hr0.0 mm/hr 1.32 in33.5 mm
03:50 PM 54.5°F12.5°C 54.2°F12.3°C 99% 6.1 mph NNE9.8 kmh NNE 14.3 mph23.0 kmh 30.02 in1016.6 mb 0.00 in0.0 mm 0.00 in/hr0.0 mm/hr 1.32 in33.5 mm
03:40 PM 54.7°F12.6°C 54.4°F12.4°C 99% 2.8 mph N4.5 kmh N 9.2 mph14.8 kmh 30.02 in1016.6 mb 0.00 in0.0 mm 0.00 in/hr0.0 mm/hr 1.32 in33.5 mm
03:30 PM 54.7°F12.6°C 54.4°F12.4°C 99% 2.2 mph SE3.5 kmh SE 10.1 mph16.3 kmh 30.02 in1016.6 mb 0.00 in0.0 mm 0.00 in/hr0.0 mm/hr 1.32 in33.5 mm
03:20 PM 54.7°F12.6°C 54.4°F12.4°C 99% 3.7 mph NE6.0 kmh NE 7.1 mph11.4 kmh 30.02 in1016.6 mb 0.00 in0.0 mm 0.00 in/hr0.0 mm/hr 1.32 in33.5 mm
03:10 PM 54.7°F12.6°C 54.7°F12.6°C 100% 5.7 mph ENE9.2 kmh ENE 12.2 mph19.6 kmh 30.02 in1016.6 mb 0.00 in0.0 mm 0.00 in/hr0.0 mm/hr 1.32 in33.5 mm
03:00 PM 54.7°F12.6°C 54.7°F12.6°C 100% 7.1 mph NE11.4 kmh NE 17.3 mph27.8 kmh 30.02 in1016.6 mb 0.00 in0.0 mm 0.00 in/hr0.0 mm/hr 1.32 in33.5 mm
02:50 PM 54.7°F12.6°C 54.7°F12.6°C 100% 10.6 mph E17.1 kmh E 16.1 mph25.9 kmh 30.02 in1016.6 mb 0.00 in0.0 mm 0.00 in/hr0.0 mm/hr 1.32 in33.5 mm
02:40 PM 54.7°F12.6°C 54.7°F12.6°C 100% 3.4 mph NW5.5 kmh NW 6.0 mph9.7 kmh 30.02 in1016.6 mb 0.00 in0.0 mm 0.00 in/hr0.0 mm/hr 1.32 in33.5 mm
02:30 PM 54.7°F12.6°C 54.7°F12.6°C 100% 3.5 mph ENE5.6 kmh ENE 6.0 mph9.7 kmh 30.02 in1016.6 mb 0.00 in0.0 mm 0.00 in/hr0.0 mm/hr 1.32 in33.5 mm
02:20 PM 54.5°F12.5°C 54.5°F12.5°C 100% 5.0 mph SW8.0 kmh SW 11.0 mph17.7 kmh 30.01 in1016.3 mb 0.00 in0.0 mm 0.00 in/hr0.0 mm/hr 1.32 in33.5 mm
02:10 PM 54.6°F12.6°C 54.6°F12.6°C 100% 4.7 mph NW7.6 kmh NW 12.2 mph19.6 kmh 30.01 in1016.3 mb 0.00 in0.0 mm 0.00 in/hr0.0 mm/hr 1.32 in33.5 mm
02:00 PM 54.7°F12.6°C 54.7°F12.6°C 100% 3.4 mph SE5.5 kmh SE 6.0 mph9.7 kmh 30.02 in1016.6 mb 0.00 in0.0 mm 0.00 in/hr0.0 mm/hr 1.32 in33.5 mm
01:50 PM 54.8°F12.7°C 54.8°F12.7°C 100% 4.4 mph N7.1 kmh N 8.0 mph12.9 kmh 30.02 in1016.6 mb 0.00 in0.0 mm 0.00 in/hr0.0 mm/hr 1.32 in33.5 mm
01:40 PM 54.9°F12.7°C 54.9°F12.7°C 100% 1.5 mph ENE2.4 kmh ENE 5.1 mph8.2 kmh 30.01 in1016.3 mb 0.00 in0.0 mm 0.00 in/hr0.0 mm/hr 1.32 in33.5 mm
01:30 PM 54.7°F12.6°C 54.7°F12.6°C 100% 5.3 mph WNW8.5 kmh WNW 9.2 mph14.8 kmh 30.02 in1016.6 mb 0.00 in0.0 mm 0.00 in/hr0.0 mm/hr 1.32 in33.5 mm
01:20 PM 54.7°F12.6°C 54.7°F12.6°C 100% 5.3 mph 8.5 kmh 9.2 mph14.8 kmh 30.02 in1016.6 mb 0.00 in0.0 mm 0.00 in/hr0.0 mm/hr 1.32 in33.5 mm
01:10 PM 54.7°F12.6°C 54.7°F12.6°C 100% 3.1 mph SE5.0 kmh SE 8.0 mph12.9 kmh 30.02 in1016.6 mb 0.00 in0.0 mm 0.00 in/hr0.0 mm/hr 1.32 in33.5 mm
01:00 PM 54.7°F12.6°C 54.7°F12.6°C 100% 2.4 mph S3.9 kmh S 6.0 mph9.7 kmh 30.03 in1016.9 mb 0.10 in2.5 mm 0.15 in/hr3.8 mm/hr 1.32 in33.5 mm
12:40 PM 54.5°F12.5°C 54.5°F12.5°C 100% 2.2 mph SE3.5 kmh SE 7.1 mph11.4 kmh 30.03 in1016.9 mb 0.00 in0.0 mm 0.00 in/hr0.0 mm/hr 1.32 in33.5 mm
12:30 PM 54.5°F12.5°C 54.5°F12.5°C 100% 1.9 mph NE3.1 kmh NE 3.0 mph4.8 kmh 30.02 in1016.6 mb 0.00 in0.0 mm 0.00 in/hr0.0 mm/hr 1.22 in31.0 mm
12:20 PM 54.5°F12.5°C 54.5°F12.5°C 100% 2.0 mph NNW3.2 kmh NNW 4.2 mph6.8 kmh 30.03 in1016.9 mb 0.00 in0.0 mm 0.00 in/hr0.0 mm/hr 1.22 in31.0 mm
12:10 PM 54.5°F12.5°C 54.5°F12.5°C 100% 2.9 mph NE4.7 kmh NE 6.0 mph9.7 kmh 30.03 in1016.9 mb 0.00 in0.0 mm 0.00 in/hr0.0 mm/hr 1.22 in31.0 mm
12:00 PM 54.4°F12.4°C 53.8°F12.1°C 98% 3.9 mph NE6.3 kmh NE 10.1 mph16.3 kmh 30.03 in1016.9 mb 0.00 in0.0 mm 0.00 in/hr0.0 mm/hr 1.22 in31.0 mm
11:50 AM 54.3°F12.4°C 53.8°F12.1°C 98% 3.7 mph NE6.0 kmh NE 8.0 mph12.9 kmh 30.04 in1017.3 mb 0.00 in0.0 mm 0.00 in/hr0.0 mm/hr 1.22 in31.0 mm
11:40 AM 54.5°F12.5°C 54.5°F12.5°C 100% 2.9 mph N4.7 kmh N 7.1 mph11.4 kmh 30.04 in1017.3 mb 0.00 in0.0 mm 0.00 in/hr0.0 mm/hr 1.22 in31.0 mm
11:30 AM 54.3°F12.4°C 53.8°F12.1°C 98% 7.7 mph SSE12.4 kmh SSE 12.2 mph19.6 kmh 30.04 in1017.3 mb 0.00 in0.0 mm 0.00 in/hr0.0 mm/hr 1.22 in31.0 mm
11:20 AM 54.1°F12.3°C 53.6°F12.0°C 98% 4.9 mph NE7.9 kmh NE 8.0 mph12.9 kmh 30.03 in1016.9 mb 0.00 in0.0 mm 0.00 in/hr0.0 mm/hr 1.22 in31.0 mm
11:10 AM 54.0°F12.2°C 53.4°F11.9°C 98% 4.0 mph E6.4 kmh E 8.0 mph12.9 kmh 30.04 in1017.3 mb 0.00 in0.0 mm 0.00 in/hr0.0 mm/hr 1.22 in31.0 mm
11:00 AM 53.8°F12.1°C 53.2°F11.8°C 98% 4.6 mph NNE7.4 kmh NNE 7.1 mph11.4 kmh 30.04 in1017.3 mb 0.00 in0.0 mm 0.00 in/hr0.0 mm/hr 1.22 in31.0 mm
10:50 AM 53.6°F12.0°C 53.0°F11.7°C 98% 4.0 mph N6.4 kmh N 8.0 mph12.9 kmh 30.04 in1017.3 mb 0.02 in0.5 mm 0.12 in/hr3.0 mm/hr 1.22 in31.0 mm
10:40 AM 53.4°F11.9°C 52.9°F11.6°C 98% 2.9 mph NE4.7 kmh NE 4.2 mph6.8 kmh 30.03 in1016.9 mb 0.00 in0.0 mm 0.00 in/hr0.0 mm/hr 1.21 in30.7 mm
10:30 AM 53.2°F11.8°C 52.7°F11.5°C 98% 4.0 mph NNE6.4 kmh NNE 9.2 mph14.8 kmh 30.03 in1016.9 mb 0.00 in0.0 mm 0.00 in/hr0.0 mm/hr 1.21 in30.7 mm
10:20 AM 53.1°F11.7°C 52.5°F11.4°C 98% 2.9 mph NNE4.7 kmh NNE 7.1 mph11.4 kmh 30.03 in1016.9 mb 0.00 in0.0 mm 0.00 in/hr0.0 mm/hr 1.21 in30.7 mm
10:10 AM 52.9°F11.6°C 52.3°F11.3°C 98% 2.4 mph WNW3.9 kmh WNW 7.1 mph11.4 kmh 30.02 in1016.6 mb 0.00 in0.0 mm 0.00 in/hr0.0 mm/hr 1.21 in30.7 mm
10:00 AM 52.7°F11.5°C 52.2°F11.2°C 98% 4.0 mph 6.4 kmh 8.0 mph12.9 kmh 30.02 in1016.6 mb 0.00 in0.0 mm 0.00 in/hr0.0 mm/hr 1.21 in30.7 mm
09:50 AM 52.7°F11.5°C 52.2°F11.2°C 98% 2.0 mph SSW3.2 kmh SSW 3.0 mph4.8 kmh 30.01 in1016.3 mb 0.00 in0.0 mm 0.00 in/hr0.0 mm/hr 1.21 in30.7 mm
09:40 AM 52.5°F11.4°C 52.2°F11.2°C 99% 2.0 mph 3.2 kmh 4.2 mph6.8 kmh 30.02 in1016.6 mb 0.02 in0.5 mm 0.12 in/hr3.0 mm/hr 1.21 in30.7 mm
09:30 AM 52.5°F11.4°C 52.2°F11.2°C 99% 4.4 mph NNE7.1 kmh NNE 10.1 mph16.3 kmh 30.02 in1016.6 mb 0.00 in0.0 mm 0.00 in/hr0.0 mm/hr 1.19 in30.2 mm
09:20 AM 52.4°F11.3°C 52.2°F11.2°C 99% 3.1 mph N5.0 kmh N 10.1 mph16.3 kmh 30.02 in1016.6 mb 0.02 in0.5 mm 0.12 in/hr3.0 mm/hr 1.19 in30.2 mm
09:10 AM 52.5°F11.4°C 52.2°F11.2°C 99% 3.7 mph N6.0 kmh N 9.2 mph14.8 kmh 30.01 in1016.3 mb 0.00 in0.0 mm 0.00 in/hr0.0 mm/hr 1.17 in29.7 mm
09:00 AM 52.3°F11.3°C 52.1°F11.2°C 99% 2.0 mph NW3.2 kmh NW 3.0 mph4.8 kmh 30.01 in1016.3 mb 0.00 in0.0 mm 0.00 in/hr0.0 mm/hr 1.17 in29.7 mm
08:50 AM 52.5°F11.4°C 52.2°F11.2°C 99% 2.9 mph NE4.7 kmh NE 7.1 mph11.4 kmh 30.01 in1016.3 mb 0.00 in0.0 mm 0.00 in/hr0.0 mm/hr 1.17 in29.7 mm
08:40 AM 52.5°F11.4°C 52.2°F11.2°C 99% 4.0 mph NE6.4 kmh NE 10.1 mph16.3 kmh 30.01 in1016.3 mb 0.00 in0.0 mm 0.00 in/hr0.0 mm/hr 1.17 in29.7 mm
08:30 AM 52.5°F11.4°C 52.2°F11.2°C 99% 2.4 mph WNW3.9 kmh WNW 8.0 mph12.9 kmh 30.00 in1015.9 mb 0.00 in0.0 mm 0.00 in/hr0.0 mm/hr 1.17 in29.7 mm
08:20 AM 52.5°F11.4°C 52.2°F11.2°C 99% 3.2 mph NW5.1 kmh NW 12.2 mph19.6 kmh 30.00 in1015.9 mb 0.00 in0.0 mm 0.00 in/hr0.0 mm/hr 1.17 in29.7 mm
08:10 AM 52.4°F11.3°C 52.1°F11.2°C 99% 3.2 mph NE5.1 kmh NE 11.0 mph17.7 kmh 30.00 in1015.9 mb 0.00 in0.0 mm 0.00 in/hr0.0 mm/hr 1.17 in29.7 mm
08:00 AM 52.3°F11.3°C 52.1°F11.2°C 99% 2.9 mph N4.7 kmh N 8.0 mph12.9 kmh 30.00 in1015.9 mb 0.02 in0.5 mm 0.02 in/hr0.5 mm/hr 1.17 in29.7 mm
07:50 AM 52.3°F11.3°C 52.1°F11.2°C 99% 0.9 mph N1.4 kmh N 5.1 mph8.2 kmh 30.00 in1015.9 mb 0.00 in0.0 mm 0.00 in/hr0.0 mm/hr 1.15 in29.2 mm
07:40 AM 52.3°F11.3°C 52.1°F11.2°C 99% 3.1 mph NE5.0 kmh NE 7.1 mph11.4 kmh 30.00 in1015.9 mb 0.00 in0.0 mm 0.00 in/hr0.0 mm/hr 1.15 in29.2 mm
07:30 AM 52.3°F11.3°C 52.1°F11.2°C 99% 5.2 mph NW8.4 kmh NW 8.0 mph12.9 kmh 30.00 in1015.9 mb 0.02 in0.5 mm 0.12 in/hr3.0 mm/hr 1.15 in29.2 mm
07:20 AM 52.3°F11.3°C 52.1°F11.2°C 99% 2.6 mph NW4.2 kmh NW 6.0 mph9.7 kmh 30.00 in1015.9 mb 0.00 in0.0 mm 0.00 in/hr0.0 mm/hr 1.13 in28.7 mm
07:10 AM 52.2°F11.2°C 51.9°F11.1°C 99% 2.9 mph W4.7 kmh W 5.1 mph8.2 kmh 30.00 in1015.9 mb 0.02 in0.5 mm 0.12 in/hr3.0 mm/hr 1.13 in28.7 mm
07:00 AM 52.2°F11.2°C 51.9°F11.1°C 99% 2.8 mph WSW4.5 kmh WSW 5.1 mph8.2 kmh 30.00 in1015.9 mb 0.00 in0.0 mm 0.00 in/hr0.0 mm/hr 1.12 in28.4 mm
06:50 AM 52.2°F11.2°C 51.9°F11.1°C 99% 0.9 mph SE1.4 kmh SE 3.0 mph4.8 kmh 29.99 in1015.6 mb 0.02 in0.5 mm 0.12 in/hr3.0 mm/hr 1.12 in28.4 mm
06:40 AM 52.2°F11.2°C 51.9°F11.1°C 99% 2.3 mph WSW3.7 kmh WSW 9.2 mph14.8 kmh 29.99 in1015.6 mb 0.00 in0.0 mm 0.00 in/hr0.0 mm/hr 1.10 in27.9 mm
06:30 AM 52.1°F11.2°C 51.9°F11.1°C 99% 3.0 mph N4.8 kmh N 8.0 mph12.9 kmh 29.99 in1015.6 mb 0.00 in0.0 mm 0.00 in/hr0.0 mm/hr 1.10 in27.9 mm
06:20 AM 52.0°F11.1°C 51.7°F10.9°C 99% 4.9 mph SE7.9 kmh SE 9.2 mph14.8 kmh 29.99 in1015.6 mb 0.02 in0.5 mm 0.12 in/hr3.0 mm/hr 1.10 in27.9 mm
06:10 AM 52.0°F11.1°C 51.7°F10.9°C 99% 2.3 mph NE3.7 kmh NE 7.1 mph11.4 kmh 29.98 in1015.2 mb 0.00 in0.0 mm 0.00 in/hr0.0 mm/hr 1.08 in27.4 mm
06:00 AM 51.8°F11.0°C 51.5°F10.8°C 99% 2.0 mph NE3.2 kmh NE 4.2 mph6.8 kmh 29.98 in1015.2 mb 0.02 in0.5 mm 0.02 in/hr0.5 mm/hr 1.08 in27.4 mm
05:50 AM 51.8°F11.0°C 51.5°F10.8°C 99% 4.0 mph NE6.4 kmh NE 7.1 mph11.4 kmh 29.98 in1015.2 mb 0.02 in0.5 mm 0.12 in/hr3.0 mm/hr 1.08 in27.4 mm
05:40 AM 51.7°F10.9°C 51.4°F10.8°C 99% 0.9 mph NE1.4 kmh NE 4.2 mph6.8 kmh 29.98 in1015.2 mb 0.02 in0.5 mm 0.12 in/hr3.0 mm/hr 1.06 in26.9 mm
05:30 AM 51.6°F10.9°C 51.3°F10.7°C 99% 2.9 mph NE4.7 kmh NE 8.0 mph12.9 kmh 29.97 in1014.9 mb 0.02 in0.5 mm 0.12 in/hr3.0 mm/hr 1.05 in26.7 mm
05:20 AM 51.6°F10.9°C 51.3°F10.7°C 99% 2.9 mph N4.7 kmh N 7.1 mph11.4 kmh 29.97 in1014.9 mb 0.00 in0.0 mm 0.00 in/hr0.0 mm/hr 1.03 in26.2 mm
05:10 AM 51.6°F10.9°C 51.3°F10.7°C 99% 4.0 mph 6.4 kmh 6.0 mph9.7 kmh 29.97 in1014.9 mb 0.02 in0.5 mm 0.12 in/hr3.0 mm/hr 1.03 in26.2 mm
05:00 AM 51.6°F10.9°C 51.3°F10.7°C 99% 2.9 mph NE4.7 kmh NE 5.1 mph8.2 kmh 29.97 in1014.9 mb 0.00 in0.0 mm 0.00 in/hr0.0 mm/hr 1.01 in25.7 mm
04:50 AM 51.6°F10.9°C 51.3°F10.7°C 99% 2.0 mph 3.2 kmh 5.1 mph8.2 kmh 29.98 in1015.2 mb 0.02 in0.5 mm 0.12 in/hr3.0 mm/hr 1.01 in25.7 mm
04:40 AM 51.6°F10.9°C 51.3°F10.7°C 99% 2.9 mph N4.7 kmh N 6.0 mph9.7 kmh 29.99 in1015.6 mb 0.02 in0.5 mm 0.12 in/hr3.0 mm/hr 0.99 in25.1 mm
04:30 AM 51.8°F11.0°C 51.5°F10.8°C 99% 0.9 mph NE1.4 kmh NE 3.0 mph4.8 kmh 29.99 in1015.6 mb 0.02 in0.5 mm 0.12 in/hr3.0 mm/hr 0.97 in24.6 mm
04:20 AM 51.8°F11.0°C 51.5°F10.8°C 99% 2.0 mph NE3.2 kmh NE 5.1 mph8.2 kmh 29.99 in1015.6 mb 0.00 in0.0 mm 0.00 in/hr0.0 mm/hr 0.96 in24.4 mm
04:10 AM 51.8°F11.0°C 51.5°F10.8°C 99% 4.0 mph 6.4 kmh 7.1 mph11.4 kmh 29.99 in1015.6 mb 0.02 in0.5 mm 0.12 in/hr3.0 mm/hr 0.96 in24.4 mm
04:00 AM 51.8°F11.0°C 51.5°F10.8°C 99% 2.3 mph NNE3.7 kmh NNE 5.1 mph8.2 kmh 29.99 in1015.6 mb 0.00 in0.0 mm 0.00 in/hr0.0 mm/hr 0.94 in23.9 mm
03:50 AM 51.8°F11.0°C 51.5°F10.8°C 99% 1.4 mph NW2.3 kmh NW 3.0 mph4.8 kmh 29.99 in1015.6 mb 0.02 in0.5 mm 0.12 in/hr3.0 mm/hr 0.94 in23.9 mm
03:40 AM 51.8°F11.0°C 51.5°F10.8°C 99% 2.4 mph N3.9 kmh N 5.1 mph8.2 kmh 29.99 in1015.6 mb 0.02 in0.5 mm 0.12 in/hr3.0 mm/hr 0.92 in23.4 mm
03:30 AM 51.8°F11.0°C 51.5°F10.8°C 99% 0.9 mph E1.4 kmh E 5.1 mph8.2 kmh 29.99 in1015.6 mb 0.02 in0.5 mm 0.12 in/hr3.0 mm/hr 0.90 in22.9 mm
03:20 AM 52.0°F11.1°C 51.7°F10.9°C 99% 2.9 mph NE4.7 kmh NE 5.1 mph8.2 kmh 29.98 in1015.2 mb 0.02 in0.5 mm 0.12 in/hr3.0 mm/hr 0.89 in22.6 mm
03:10 AM 52.0°F11.1°C 51.7°F10.9°C 99% 2.9 mph NE4.7 kmh NE 9.2 mph14.8 kmh 29.99 in1015.6 mb 0.05 in1.3 mm 0.30 in/hr7.6 mm/hr 0.87 in22.1 mm
03:00 AM 52.0°F11.1°C 51.7°F10.9°C 99% 2.3 mph WSW3.7 kmh WSW 10.1 mph16.3 kmh 29.99 in1015.6 mb 0.07 in1.8 mm 0.08 in/hr2.0 mm/hr 0.83 in21.1 mm
02:50 AM 52.0°F11.1°C 51.7°F10.9°C 99% 4.4 mph ESE7.1 kmh ESE 12.2 mph19.6 kmh 29.99 in1015.6 mb 0.02 in0.5 mm 0.12 in/hr3.0 mm/hr 0.78 in19.8 mm
02:40 AM 52.0°F11.1°C 51.7°F10.9°C 99% 2.4 mph E3.9 kmh E 7.1 mph11.4 kmh 30.00 in1015.9 mb 0.05 in1.3 mm 0.30 in/hr7.6 mm/hr 0.76 in19.3 mm
02:30 AM 52.0°F11.1°C 51.7°F10.9°C 99% 6.8 mph NW10.9 kmh NW 12.2 mph19.6 kmh 30.00 in1015.9 mb 0.04 in1.0 mm 0.24 in/hr6.1 mm/hr 0.71 in18.0 mm
02:20 AM 52.0°F11.1°C 51.7°F10.9°C 99% 0.9 mph NE1.4 kmh NE 2.1 mph3.4 kmh 30.01 in1016.3 mb 0.04 in1.0 mm 0.24 in/hr6.1 mm/hr 0.67 in17.0 mm
02:10 AM 52.0°F11.1°C 51.7°F10.9°C 99% 2.5 mph NE4.0 kmh NE 4.2 mph6.8 kmh 30.01 in1016.3 mb 0.05 in1.3 mm 0.30 in/hr7.6 mm/hr 0.66 in16.8 mm
02:00 AM 52.0°F11.1°C 51.7°F10.9°C 99% 2.1 mph NW3.4 kmh NW 6.0 mph9.7 kmh 30.01 in1016.3 mb 0.02 in0.5 mm 0.02 in/hr0.5 mm/hr 0.62 in15.7 mm
01:50 AM 52.0°F11.1°C 51.7°F10.9°C 99% 1.2 mph WNW1.9 kmh WNW 4.2 mph6.8 kmh 30.01 in1016.3 mb 0.04 in1.0 mm 0.24 in/hr6.1 mm/hr 0.60 in15.2 mm
01:40 AM 52.0°F11.1°C 51.7°F10.9°C 99% 2.0 mph WSW3.2 kmh WSW 3.0 mph4.8 kmh 30.02 in1016.6 mb 0.05 in1.3 mm 0.30 in/hr7.6 mm/hr 0.57 in14.5 mm
01:30 AM 52.0°F11.1°C 51.7°F10.9°C 99% 2.9 mph WSW4.7 kmh WSW 8.0 mph12.9 kmh 30.03 in1016.9 mb 0.07 in1.8 mm 0.42 in/hr10.7 mm/hr 0.51 in13.0 mm
01:20 AM 52.0°F11.1°C 51.7°F10.9°C 99% 2.2 mph NW3.5 kmh NW 14.3 mph23.0 kmh 30.03 in1016.9 mb 0.05 in1.3 mm 0.30 in/hr7.6 mm/hr 0.44 in11.2 mm
01:10 AM 52.0°F11.1°C 51.7°F10.9°C 99% 1.5 mph SW2.4 kmh SW 4.2 mph6.8 kmh 30.03 in1016.9 mb 0.12 in3.0 mm 0.72 in/hr18.3 mm/hr 0.39 in9.9 mm
01:00 AM 52.0°F11.1°C 51.7°F10.9°C 99% 4.0 mph ESE6.4 kmh ESE 9.2 mph14.8 kmh 30.03 in1016.9 mb 0.09 in2.3 mm 0.11 in/hr2.8 mm/hr 0.30 in7.6 mm
12:50 AM 52.2°F11.2°C 51.9°F11.1°C 99% 6.9 mph NE11.1 kmh NE 11.0 mph17.7 kmh 30.04 in1017.3 mb 0.05 in1.3 mm 0.30 in/hr7.6 mm/hr 0.21 in5.3 mm
12:40 AM 52.2°F11.2°C 51.9°F11.1°C 99% 2.9 mph NE4.7 kmh NE 7.1 mph11.4 kmh 30.04 in1017.3 mb 0.07 in1.8 mm 0.42 in/hr10.7 mm/hr 0.16 in4.1 mm
12:30 AM 52.2°F11.2°C 51.9°F11.1°C 99% 4.0 mph SW6.4 kmh SW 6.0 mph9.7 kmh 30.05 in1017.6 mb 0.04 in1.0 mm 0.24 in/hr6.1 mm/hr 0.09 in2.3 mm
12:20 AM 52.2°F11.2°C 51.9°F11.1°C 99% 0.9 mph NNW1.4 kmh NNW 3.0 mph4.8 kmh 30.05 in1017.6 mb 0.07 in1.8 mm 0.42 in/hr10.7 mm/hr 0.07 in1.8 mm
12:10 AM 52.2°F11.2°C 51.9°F11.1°C 99% 2.6 mph 4.2 kmh 5.1 mph8.2 kmh 30.05 in1017.6 mb 0.02 in0.5 mm 0.12 in/hr3.0 mm/hr 0.02 in0.5 mm
12:00 AM 52.2°F11.2°C 51.9°F11.1°C 99% 5.3 mph NE8.5 kmh NE 12.2 mph19.6 kmh 30.05 in1017.6 mb 0.02 in0.5 mm 0.00 in/hr0.0 mm/hr 0.02 in0.5 mm